createdAt,value
2022-08-13T00:01:43.158Z,14.59
2022-08-13T00:04:19.600Z,14.56
2022-08-13T00:07:05.177Z,14.49
2022-08-13T00:09:40.927Z,14.41
2022-08-13T00:12:51.813Z,14.31
2022-08-13T00:15:29.752Z,14.27
2022-08-13T00:18:07.566Z,14.03
2022-08-13T00:20:54.693Z,13.99
2022-08-13T00:23:53.148Z,14.09
2022-08-13T00:26:16.978Z,14.04
2022-08-13T00:28:55.985Z,13.99
2022-08-13T00:31:25.229Z,14.02
2022-08-13T00:33:53.218Z,14.00
2022-08-13T00:36:34.983Z,13.97
2022-08-13T00:39:09.876Z,13.91
2022-08-13T00:41:57.628Z,13.85
2022-08-13T00:44:26.102Z,13.93
2022-08-13T00:47:14.383Z,13.89
2022-08-13T00:49:49.929Z,13.74
2022-08-13T00:52:35.111Z,13.60
2022-08-13T00:55:07.479Z,13.55
2022-08-13T00:57:36.440Z,13.38
2022-08-13T01:00:14.502Z,13.26
2022-08-13T01:02:56.210Z,13.22
2022-08-13T01:05:25.826Z,13.15
2022-08-13T01:07:58.573Z,13.16
2022-08-13T01:10:27.370Z,13.17
2022-08-13T01:12:56.508Z,13.24
2022-08-13T01:15:25.309Z,13.26
2022-08-13T01:17:59.769Z,13.20
2022-08-13T01:20:32.471Z,13.14
2022-08-13T01:23:04.670Z,13.06
2022-08-13T01:25:52.941Z,13.10
2022-08-13T01:28:21.483Z,13.10
2022-08-13T01:30:49.068Z,13.07
2022-08-13T01:33:18.399Z,13.11
2022-08-13T01:35:47.341Z,13.04
2022-08-13T01:38:22.975Z,12.94
2022-08-13T01:40:55.096Z,12.90
2022-08-13T01:43:24.600Z,12.87
2022-08-13T01:45:53.319Z,12.94
2022-08-13T01:48:59.647Z,12.89
2022-08-13T01:51:43.856Z,12.83
2022-08-13T01:54:38.003Z,12.89
2022-08-13T01:57:04.214Z,12.74
2022-08-13T02:00:01.576Z,12.63
2022-08-13T02:02:34.220Z,12.59
2022-08-13T02:05:25.130Z,12.63
2022-08-13T02:08:05.745Z,12.60
2022-08-13T02:10:36.996Z,12.67
2022-08-13T02:13:16.189Z,12.64
2022-08-13T02:15:51.205Z,12.61
2022-08-13T02:18:23.329Z,12.41
2022-08-13T02:21:18.088Z,12.02
2022-08-13T02:24:02.588Z,12.01
2022-08-13T02:26:30.785Z,12.09
2022-08-13T02:29:02.080Z,12.21
2022-08-13T02:32:15.552Z,12.27
2022-08-13T02:34:17.486Z,12.33
2022-08-13T02:37:00.017Z,12.19
2022-08-13T02:39:43.104Z,11.90
2022-08-13T02:42:15.751Z,11.96
2022-08-13T02:44:50.683Z,12.01
2022-08-13T02:47:33.678Z,11.95
2022-08-13T02:50:09.133Z,11.89
2022-08-13T02:52:46.107Z,11.96
2022-08-13T02:55:17.781Z,11.95
2022-08-13T02:57:51.608Z,11.96
2022-08-13T03:00:21.360Z,11.96
2022-08-13T03:03:02.056Z,11.97
2022-08-13T03:05:50.962Z,12.01
2022-08-13T03:08:40.124Z,11.73
2022-08-13T03:11:06.172Z,11.74
2022-08-13T03:13:45.992Z,11.75
2022-08-13T03:16:18.531Z,11.74
2022-08-13T03:18:52.958Z,11.71
2022-08-13T03:21:40.935Z,11.71
2022-08-13T03:24:21.893Z,11.61
2022-08-13T03:27:02.041Z,11.39
2022-08-13T03:30:02.919Z,11.46
2022-08-13T03:32:17.595Z,11.51
2022-08-13T03:34:45.560Z,11.55
2022-08-13T03:37:13.939Z,11.32
2022-08-13T03:39:42.680Z,11.38
2022-08-13T03:42:11.830Z,11.41
2022-08-13T03:44:41.137Z,11.34
2022-08-13T03:47:30.052Z,11.44
2022-08-13T03:49:56.120Z,11.41
2022-08-13T03:52:25.074Z,11.32
2022-08-13T03:55:11.688Z,11.26
2022-08-13T03:57:47.807Z,11.24
2022-08-13T04:00:36.094Z,11.31
2022-08-13T04:03:15.528Z,11.24
2022-08-13T04:05:56.648Z,11.26
2022-08-13T04:08:30.829Z,11.27
2022-08-13T04:10:59.066Z,11.09
2022-08-13T04:14:05.593Z,11.22
2022-08-13T04:16:30.011Z,11.17
2022-08-13T04:19:00.239Z,10.98
2022-08-13T04:21:33.433Z,10.86
2022-08-13T04:24:05.759Z,10.77
2022-08-13T04:26:38.915Z,10.80
2022-08-13T04:29:12.705Z,10.73
2022-08-13T04:31:51.279Z,10.72
2022-08-13T04:34:38.095Z,10.81
2022-08-13T04:37:20.674Z,10.89
2022-08-13T04:40:05.581Z,10.84
2022-08-13T04:42:54.962Z,10.90
2022-08-13T04:45:25.646Z,11.02
2022-08-13T04:48:00.471Z,11.03
2022-08-13T04:50:32.586Z,11.12
2022-08-13T04:53:01.713Z,11.04
2022-08-13T04:55:57.890Z,10.97
2022-08-13T04:58:19.684Z,11.00
2022-08-13T05:00:51.001Z,10.95
2022-08-13T05:03:25.065Z,10.97
2022-08-13T05:06:01.127Z,10.97
2022-08-13T05:08:30.148Z,11.00
2022-08-13T05:10:58.447Z,11.06
2022-08-13T05:13:43.546Z,11.06
2022-08-13T05:16:16.861Z,11.12
2022-08-13T05:18:53.322Z,11.06
2022-08-13T05:21:23.325Z,11.01
2022-08-13T05:26:09.355Z,11.06
2022-08-13T05:26:57.036Z,11.22
2022-08-13T05:31:58.482Z,11.25
2022-08-13T05:34:28.993Z,11.38
2022-08-13T05:38:11.710Z,11.43
2022-08-13T05:39:48.613Z,11.43
2022-08-13T05:42:26.750Z,11.52
2022-08-13T05:44:58.182Z,11.60
2022-08-13T05:47:26.076Z,11.70
2022-08-13T05:49:58.895Z,11.81
2022-08-13T05:52:37.269Z,11.86
2022-08-13T05:56:06.859Z,11.94
2022-08-13T05:58:00.229Z,12.17
2022-08-13T06:00:46.066Z,12.31
2022-08-13T06:04:15.338Z,12.33
2022-08-13T06:06:25.116Z,12.40
2022-08-13T06:09:01.097Z,12.61
2022-08-13T06:12:09.113Z,12.76
2022-08-13T06:14:31.807Z,12.84
2022-08-13T06:17:00.730Z,12.90
2022-08-13T06:19:32.994Z,13.00
2022-08-13T06:22:04.529Z,13.15
2022-08-13T06:24:52.506Z,13.29
2022-08-13T06:27:55.825Z,13.47
2022-08-13T06:30:13.288Z,13.67
2022-08-13T06:34:08.531Z,13.75
2022-08-13T06:35:59.849Z,13.89
2022-08-13T06:38:30.008Z,14.01
2022-08-13T06:41:02.976Z,14.18
2022-08-13T06:43:46.015Z,14.41
2022-08-13T06:46:26.590Z,14.62
2022-08-13T06:49:01.887Z,14.80
2022-08-13T06:51:37.478Z,14.98
2022-08-13T06:54:22.154Z,15.29
2022-08-13T06:57:07.829Z,15.48
2022-08-13T07:00:10.573Z,15.79
2022-08-13T07:02:36.180Z,15.98
2022-08-13T07:05:07.669Z,16.35
2022-08-13T07:07:47.151Z,16.61
2022-08-13T07:10:17.469Z,16.87
2022-08-13T07:12:44.603Z,17.15
2022-08-13T07:15:24.482Z,17.47
2022-08-13T07:17:53.484Z,17.74
2022-08-13T07:20:24.317Z,18.03
2022-08-13T07:24:40.755Z,18.41
2022-08-13T07:25:56.789Z,18.54
2022-08-13T07:28:46.817Z,18.62
2022-08-13T07:31:19.055Z,19.02
2022-08-13T07:33:58.174Z,18.93
2022-08-13T07:36:31.025Z,19.27
2022-08-13T07:38:59.739Z,19.64
2022-08-13T07:41:30.568Z,19.92
2022-08-13T07:44:01.936Z,19.86
2022-08-13T07:46:31.163Z,20.16
2022-08-13T07:48:59.981Z,20.05
2022-08-13T07:51:36.694Z,20.23
2022-08-13T07:54:08.965Z,20.40
2022-08-13T07:56:37.296Z,20.50
2022-08-13T07:59:13.765Z,20.71
2022-08-13T08:02:19.272Z,20.76
2022-08-13T08:04:50.499Z,21.24
2022-08-13T08:07:19.213Z,21.17
2022-08-13T08:09:45.976Z,21.04
2022-08-13T08:12:32.133Z,21.31
2022-08-13T08:15:00.684Z,21.60
2022-08-13T08:18:34.571Z,21.69
2022-08-13T08:20:37.425Z,21.90
2022-08-13T08:23:06.203Z,21.71
2022-08-13T08:25:34.206Z,21.76
2022-08-13T08:28:34.241Z,22.05
2022-08-13T08:31:03.591Z,21.95
2022-08-13T08:33:53.981Z,22.37
2022-08-13T08:36:34.726Z,22.63
2022-08-13T08:39:37.754Z,22.54
2022-08-13T08:42:32.446Z,22.36
2022-08-13T08:45:04.127Z,22.67
2022-08-13T08:47:47.067Z,23.03
2022-08-13T08:50:29.553Z,23.02
2022-08-13T08:53:34.147Z,22.94
2022-08-13T08:56:09.466Z,22.94
2022-08-13T08:58:41.033Z,23.07
2022-08-13T09:01:13.442Z,23.06
2022-08-13T09:03:50.480Z,23.48
2022-08-13T09:06:33.941Z,23.36
2022-08-13T09:09:20.564Z,23.43
2022-08-13T09:11:55.824Z,23.74
2022-08-13T09:14:34.218Z,23.91
2022-08-13T09:17:10.432Z,24.22
2022-08-13T09:19:48.102Z,23.93
2022-08-13T09:22:26.639Z,24.13
2022-08-13T09:24:59.643Z,23.73
2022-08-13T09:28:01.005Z,24.08
2022-08-13T09:30:23.332Z,24.35
2022-08-13T09:32:54.522Z,24.18
2022-08-13T09:35:25.428Z,24.41
2022-08-13T09:38:02.710Z,24.51
2022-08-13T09:40:48.081Z,24.47
2022-08-13T09:43:44.422Z,24.40
2022-08-13T09:46:19.918Z,24.10
2022-08-13T09:48:47.792Z,24.34
2022-08-13T09:51:55.393Z,24.29
2022-08-13T09:54:11.770Z,24.49
2022-08-13T09:56:40.810Z,24.76
2022-08-13T09:59:15.904Z,24.98
2022-08-13T10:01:57.817Z,25.00
2022-08-13T10:04:34.134Z,25.01
2022-08-13T10:07:03.948Z,24.86
2022-08-13T10:09:55.067Z,25.02
2022-08-13T10:12:23.143Z,25.25
2022-08-13T10:14:56.870Z,25.01
2022-08-13T10:17:37.234Z,25.20
2022-08-13T10:20:20.101Z,25.59
2022-08-13T10:22:47.372Z,25.51
2022-08-13T10:25:17.412Z,25.67
2022-08-13T10:27:50.439Z,25.89
2022-08-13T10:30:57.863Z,25.78
2022-08-13T10:33:06.873Z,25.86
2022-08-13T10:35:33.896Z,26.07
2022-08-13T10:38:08.705Z,26.42
2022-08-13T10:40:37.095Z,26.58
2022-08-13T10:43:17.715Z,26.57
2022-08-13T10:45:52.544Z,26.68
2022-08-13T10:48:19.810Z,26.67
2022-08-13T10:50:50.691Z,26.63
2022-08-13T10:53:42.257Z,26.63
2022-08-13T10:56:12.556Z,26.33
2022-08-13T10:58:46.215Z,26.40
2022-08-13T11:01:18.394Z,26.03
2022-08-13T11:03:48.742Z,26.03
2022-08-13T11:06:16.713Z,26.12
2022-08-13T11:08:46.015Z,26.30
2022-08-13T11:11:37.336Z,26.43
2022-08-13T11:14:04.055Z,26.43
2022-08-13T11:16:38.009Z,26.83
2022-08-13T11:19:19.777Z,26.61
2022-08-13T11:22:11.435Z,26.45
2022-08-13T11:24:37.621Z,26.70
2022-08-13T11:27:09.434Z,26.90
2022-08-13T11:29:37.594Z,27.08
2022-08-13T11:32:11.909Z,26.96
2022-08-13T11:34:38.793Z,27.16
2022-08-13T11:37:05.808Z,27.30
2022-08-13T11:39:57.181Z,27.58
2022-08-13T11:42:26.867Z,27.62
2022-08-13T11:44:55.671Z,27.67
2022-08-13T11:47:31.050Z,27.69
2022-08-13T11:49:59.129Z,27.90
2022-08-13T11:52:28.453Z,27.62
2022-08-13T11:54:56.289Z,27.54
2022-08-13T11:57:23.686Z,27.11
2022-08-13T11:59:54.285Z,27.36
2022-08-13T12:02:26.374Z,27.56
2022-08-13T12:04:56.694Z,27.72
2022-08-13T12:07:27.860Z,27.66
2022-08-13T12:09:58.357Z,27.62
2022-08-13T12:12:31.123Z,27.60
2022-08-13T12:15:02.378Z,27.70
2022-08-13T12:17:51.756Z,27.70
2022-08-13T12:20:24.364Z,28.09
2022-08-13T12:22:59.899Z,28.12
2022-08-13T12:26:01.017Z,27.85
2022-08-13T12:28:22.476Z,28.14
2022-08-13T12:31:01.919Z,28.36
2022-08-13T12:33:39.363Z,28.64
2022-08-13T12:36:13.739Z,28.39
2022-08-13T12:38:58.868Z,28.62
2022-08-13T12:41:38.878Z,28.85
2022-08-13T12:45:05.216Z,29.00
2022-08-13T12:46:59.714Z,28.62
2022-08-13T12:49:28.563Z,28.78
2022-08-13T12:51:56.300Z,29.06
2022-08-13T12:54:39.636Z,28.87
2022-08-13T12:57:26.313Z,29.11
2022-08-13T13:00:09.905Z,29.73
2022-08-13T13:02:40.748Z,29.94
2022-08-13T13:05:16.950Z,30.35
2022-08-13T13:08:05.967Z,30.40
2022-08-13T13:10:42.352Z,30.30
2022-08-13T13:13:24.779Z,30.39
2022-08-13T13:16:34.850Z,30.06
2022-08-13T13:18:59.693Z,30.40
2022-08-13T13:21:34.957Z,30.28
2022-08-13T13:24:18.251Z,30.27
2022-08-13T13:26:56.738Z,30.38
2022-08-13T13:29:36.276Z,30.17
2022-08-13T13:32:39.682Z,30.23
2022-08-13T13:35:20.359Z,30.12
2022-08-13T13:38:06.657Z,30.11
2022-08-13T13:40:45.929Z,30.52
2022-08-13T13:43:22.720Z,30.89
2022-08-13T13:45:51.753Z,30.90
2022-08-13T13:48:34.421Z,30.73
2022-08-13T13:51:05.462Z,31.08
2022-08-13T13:54:17.269Z,31.47
2022-08-13T13:56:25.790Z,31.64
2022-08-13T13:59:00.036Z,31.47
2022-08-13T14:01:44.163Z,31.17
2022-08-13T14:04:15.553Z,31.15
2022-08-13T14:06:45.470Z,31.55
2022-08-13T14:09:15.165Z,31.87
2022-08-13T14:11:49.949Z,32.05
2022-08-13T14:14:20.511Z,32.16
2022-08-13T14:16:48.948Z,31.98
2022-08-13T14:19:48.941Z,31.58
2022-08-13T14:22:07.445Z,31.80
2022-08-13T14:24:38.910Z,31.89
2022-08-13T14:27:09.041Z,32.23
2022-08-13T14:29:45.659Z,32.75
2022-08-13T14:32:13.054Z,32.37
2022-08-13T14:34:55.434Z,32.79
2022-08-13T14:37:23.182Z,33.11
2022-08-13T14:39:55.821Z,34.39
2022-08-13T14:43:16.207Z,33.91
2022-08-13T14:45:53.380Z,34.15
2022-08-13T14:48:27.164Z,34.82
2022-08-13T14:51:20.610Z,35.83
2022-08-13T14:53:52.540Z,35.39
2022-08-13T14:56:22.341Z,35.61
2022-08-13T14:58:56.802Z,35.60
2022-08-13T15:01:25.920Z,36.03
2022-08-13T15:03:54.538Z,36.36
2022-08-13T15:06:21.677Z,36.70
2022-08-13T15:08:52.105Z,36.26
2022-08-13T15:11:20.129Z,35.54
2022-08-13T15:13:55.952Z,35.61
2022-08-13T15:16:31.271Z,35.41
2022-08-13T15:19:03.232Z,36.16
2022-08-13T15:21:48.453Z,36.14
2022-08-13T15:24:36.041Z,34.79
2022-08-13T15:27:35.807Z,35.36
2022-08-13T15:30:25.126Z,34.61
2022-08-13T15:32:58.134Z,34.25
2022-08-13T15:35:38.304Z,33.66
2022-08-13T15:38:20.993Z,32.93
2022-08-13T15:40:52.660Z,32.70
2022-08-13T15:43:36.974Z,32.32
2022-08-13T15:46:11.418Z,32.05
2022-08-13T15:48:38.906Z,31.53
2022-08-13T15:51:16.603Z,31.04
2022-08-13T15:53:54.225Z,30.72
2022-08-13T15:56:34.726Z,30.77
2022-08-13T15:59:04.046Z,30.44
2022-08-13T16:01:36.408Z,29.69
2022-08-13T16:04:04.142Z,29.48
2022-08-13T16:06:33.358Z,29.10
2022-08-13T16:09:03.943Z,29.47
2022-08-13T16:11:43.580Z,29.30
2022-08-13T16:14:20.882Z,28.91
2022-08-13T16:16:58.546Z,28.77
2022-08-13T16:19:51.542Z,28.70
2022-08-13T16:22:25.561Z,28.63
2022-08-13T16:24:58.861Z,28.70
2022-08-13T16:27:41.614Z,28.67
2022-08-13T16:30:17.053Z,28.21
2022-08-13T16:32:48.272Z,28.07
2022-08-13T16:35:17.320Z,27.94
2022-08-13T16:38:08.953Z,28.07
2022-08-13T16:40:51.361Z,28.10
2022-08-13T16:43:21.784Z,28.08
2022-08-13T16:45:51.908Z,27.85
2022-08-13T16:48:28.879Z,28.11
2022-08-13T16:50:59.470Z,28.09
2022-08-13T16:54:34.198Z,28.04
2022-08-13T16:56:17.483Z,27.77
2022-08-13T16:58:52.905Z,27.75
2022-08-13T17:01:20.654Z,27.69
2022-08-13T17:05:10.165Z,27.73
2022-08-13T17:07:17.340Z,27.65
2022-08-13T17:09:45.253Z,27.19
2022-08-13T17:12:14.346Z,27.14
2022-08-13T17:14:41.778Z,27.23
2022-08-13T17:17:14.077Z,27.07
2022-08-13T17:19:58.749Z,26.81
2022-08-13T17:22:30.433Z,27.03
2022-08-13T17:24:59.669Z,26.76
2022-08-13T17:27:26.739Z,26.93
2022-08-13T17:30:04.983Z,26.95
2022-08-13T17:32:37.706Z,27.09
2022-08-13T17:35:15.150Z,26.99
2022-08-13T17:37:55.505Z,26.42
2022-08-13T17:40:34.485Z,26.45
2022-08-13T17:44:09.659Z,26.59
2022-08-13T17:45:57.030Z,26.29
2022-08-13T17:48:29.842Z,26.53
2022-08-13T17:51:08.644Z,26.60
2022-08-13T17:53:41.629Z,26.66
2022-08-13T17:56:14.269Z,26.58
2022-08-13T17:58:46.737Z,26.51
2022-08-13T18:01:23.054Z,26.35
2022-08-13T18:03:58.445Z,26.27
2022-08-13T18:06:34.667Z,26.15
2022-08-13T18:09:21.934Z,26.08
2022-08-13T18:12:07.901Z,25.84
2022-08-13T18:14:37.731Z,25.95
2022-08-13T18:17:36.110Z,25.97
2022-08-13T18:20:08.073Z,25.97
2022-08-13T18:22:35.072Z,25.90
2022-08-13T18:25:05.902Z,25.72
2022-08-13T18:28:07.011Z,25.65
2022-08-13T18:30:29.131Z,25.55
2022-08-13T18:33:11.865Z,25.34
2022-08-13T18:35:51.093Z,25.20
2022-08-13T18:38:18.579Z,25.24
2022-08-13T18:40:45.688Z,24.98
2022-08-13T18:43:20.816Z,24.73
2022-08-13T18:45:57.511Z,24.55
2022-08-13T18:48:33.482Z,24.40
2022-08-13T18:51:32.307Z,24.25
2022-08-13T18:53:54.132Z,24.13
2022-08-13T18:56:24.497Z,23.97
2022-08-13T18:58:52.222Z,23.84
2022-08-13T19:01:21.779Z,23.69
2022-08-13T19:03:58.957Z,23.51
2022-08-13T19:06:29.544Z,23.41
2022-08-13T19:08:57.459Z,23.35
2022-08-13T19:11:25.237Z,23.18
2022-08-13T19:13:59.845Z,23.09
2022-08-13T19:16:26.665Z,22.94
2022-08-13T19:18:57.150Z,22.80
2022-08-13T19:21:52.473Z,22.73
2022-08-13T19:24:27.598Z,22.55
2022-08-13T19:26:59.268Z,22.35
2022-08-13T19:29:28.640Z,22.21
2022-08-13T19:32:00.797Z,22.17
2022-08-13T19:34:34.536Z,22.08
2022-08-13T19:37:09.399Z,21.96
2022-08-13T19:39:44.545Z,21.87
2022-08-13T19:42:33.431Z,21.57
2022-08-13T19:45:15.091Z,21.58
2022-08-13T19:47:59.246Z,21.54
2022-08-13T19:50:34.795Z,21.47
2022-08-13T19:53:06.563Z,21.31
2022-08-13T19:55:53.275Z,21.20
2022-08-13T19:58:25.061Z,21.00
2022-08-13T20:00:54.033Z,20.89
2022-08-13T20:03:24.426Z,20.92
2022-08-13T20:05:53.705Z,20.83
2022-08-13T20:08:35.979Z,20.72
2022-08-13T20:11:23.202Z,20.51
2022-08-13T20:13:55.969Z,20.23
2022-08-13T20:16:28.701Z,20.22
2022-08-13T20:18:57.262Z,20.14
2022-08-13T20:21:43.629Z,20.10
2022-08-13T20:24:21.780Z,19.99
2022-08-13T20:27:42.856Z,19.74
2022-08-13T20:29:59.272Z,19.77
2022-08-13T20:32:33.410Z,19.65
2022-08-13T20:35:23.795Z,19.42
2022-08-13T20:37:54.295Z,19.38
2022-08-13T20:40:29.406Z,19.33
2022-08-13T20:43:06.939Z,19.17
2022-08-13T20:45:51.357Z,19.00
2022-08-13T20:48:30.832Z,18.86
2022-08-13T20:51:04.794Z,18.76
2022-08-13T20:53:37.270Z,18.53
2022-08-13T20:56:09.831Z,18.56
2022-08-13T21:00:39.784Z,18.51
2022-08-13T21:01:24.736Z,18.37
2022-08-13T21:03:57.446Z,18.30
2022-08-13T21:06:24.409Z,17.96
2022-08-13T21:08:55.050Z,17.75
2022-08-13T21:11:24.928Z,17.69
2022-08-13T21:14:08.837Z,17.62
2022-08-13T21:16:38.836Z,17.71
2022-08-13T21:19:36.673Z,17.78
2022-08-13T21:21:55.458Z,17.65
2022-08-13T21:24:28.487Z,17.56
2022-08-13T21:27:00.561Z,17.42
2022-08-13T21:29:32.537Z,17.18
2022-08-13T21:32:09.309Z,17.13
2022-08-13T21:34:38.142Z,17.12
2022-08-13T21:37:11.493Z,17.24
2022-08-13T21:39:39.425Z,17.12
2022-08-13T21:42:06.780Z,17.03
2022-08-13T21:44:34.716Z,17.04
2022-08-13T21:47:13.292Z,16.97
2022-08-13T21:49:43.923Z,16.80
2022-08-13T21:52:15.198Z,16.56
2022-08-13T21:54:51.350Z,16.62
2022-08-13T21:57:22.768Z,16.69
2022-08-13T21:59:52.532Z,16.67
2022-08-13T22:02:34.104Z,16.54
2022-08-13T22:05:03.992Z,16.56
2022-08-13T22:07:45.367Z,16.52
2022-08-13T22:10:20.459Z,16.59
2022-08-13T22:12:54.132Z,16.36
2022-08-13T22:15:33.483Z,16.38
2022-08-13T22:18:02.468Z,16.30
2022-08-13T22:20:30.100Z,16.15
2022-08-13T22:22:58.435Z,15.99
2022-08-13T22:25:26.397Z,15.96
2022-08-13T22:27:53.697Z,15.93
2022-08-13T22:30:39.205Z,15.68
2022-08-13T22:33:11.080Z,15.49
2022-08-13T22:35:50.872Z,15.50
2022-08-13T22:38:36.377Z,15.36
2022-08-13T22:41:07.395Z,15.27
2022-08-13T22:43:46.892Z,15.32
2022-08-13T22:46:16.786Z,15.55
2022-08-13T22:48:45.544Z,15.50
2022-08-13T22:51:14.227Z,15.57
2022-08-13T22:53:43.206Z,15.55
2022-08-13T22:56:13.117Z,15.51
2022-08-13T22:58:42.362Z,15.44
2022-08-13T23:01:11.995Z,15.32
2022-08-13T23:03:39.669Z,15.22
2022-08-13T23:06:32.915Z,15.22
2022-08-13T23:08:58.854Z,15.17
2022-08-13T23:11:27.942Z,14.86
2022-08-13T23:13:57.099Z,14.67
2022-08-13T23:16:27.066Z,14.40
2022-08-13T23:18:58.182Z,14.46
2022-08-13T23:21:29.997Z,14.57
2022-08-13T23:23:57.997Z,14.56
2022-08-13T23:26:29.900Z,14.47
2022-08-13T23:29:00.871Z,14.44
2022-08-13T23:31:30.083Z,14.49
2022-08-13T23:34:04.826Z,14.61
2022-08-13T23:36:36.981Z,14.74
2022-08-13T23:39:07.837Z,14.64
2022-08-13T23:41:36.357Z,14.56
2022-08-13T23:44:10.379Z,14.66
2022-08-13T23:46:51.953Z,14.63
2022-08-13T23:49:23.128Z,14.76
2022-08-13T23:51:53.341Z,14.73
2022-08-13T23:54:22.677Z,14.66
2022-08-13T23:56:53.738Z,14.57
2022-08-13T23:59:30.176Z,14.41
